createdAt,value
2019-03-16T00:00:32.516Z,8.23
2019-03-16T00:05:34.035Z,8.22
2019-03-16T00:10:35.552Z,8.27
2019-03-16T00:15:37.067Z,8.24
2019-03-16T00:20:38.596Z,8.21
2019-03-16T00:25:40.128Z,8.20
2019-03-16T00:30:41.618Z,8.21
2019-03-16T00:35:43.189Z,8.19
2019-03-16T00:40:44.699Z,8.18
2019-03-16T00:45:46.248Z,8.19
2019-03-16T00:50:47.726Z,8.21
2019-03-16T00:55:49.290Z,8.22
2019-03-16T01:00:50.792Z,8.23
2019-03-16T01:05:52.369Z,8.23
2019-03-16T01:10:53.849Z,8.24
2019-03-16T01:15:55.370Z,8.25
2019-03-16T01:20:56.867Z,8.29
2019-03-16T01:25:58.386Z,8.31
2019-03-16T01:30:59.970Z,8.32
2019-03-16T01:36:01.480Z,8.32
2019-03-16T01:41:03.175Z,8.17
2019-03-16T01:46:04.689Z,8.34
2019-03-16T01:51:06.196Z,8.37
2019-03-16T01:56:07.768Z,8.37
2019-03-16T02:01:09.309Z,8.38
2019-03-16T02:06:11.735Z,8.38
2019-03-16T02:11:13.233Z,8.40
2019-03-16T02:16:15.296Z,8.42
2019-03-16T02:21:16.792Z,8.43
2019-03-16T02:26:18.317Z,8.44
2019-03-16T02:31:19.842Z,8.43
2019-03-16T02:36:21.368Z,8.46
2019-03-16T02:41:22.905Z,8.46
2019-03-16T02:46:24.442Z,8.43
2019-03-16T02:51:26.193Z,8.41
2019-03-16T02:56:27.721Z,8.38
2019-03-16T03:01:29.255Z,8.32
2019-03-16T03:06:30.792Z,8.27
2019-03-16T03:11:32.318Z,8.22
2019-03-16T03:16:33.815Z,8.17
2019-03-16T03:21:35.372Z,8.09
2019-03-16T03:26:37.212Z,8.03
2019-03-16T03:31:38.788Z,8.01
2019-03-16T03:36:40.289Z,7.97
2019-03-16T03:41:41.834Z,7.94
2019-03-16T03:46:43.333Z,7.95
2019-03-16T03:51:44.972Z,7.93
2019-03-16T03:56:46.447Z,7.91
2019-03-16T04:01:47.972Z,7.93
2019-03-16T04:06:49.476Z,7.96
2019-03-16T04:11:51.024Z,7.96
2019-03-16T04:16:52.631Z,7.95
2019-03-16T04:21:54.156Z,7.97
2019-03-16T04:26:55.682Z,7.95
2019-03-16T04:31:57.212Z,7.91
2019-03-16T04:36:58.719Z,7.89
2019-03-16T04:42:00.294Z,7.87
2019-03-16T04:47:01.768Z,7.84
2019-03-16T04:52:03.292Z,7.82
2019-03-16T04:57:04.832Z,7.80
2019-03-16T05:02:06.357Z,7.81
2019-03-16T05:07:07.960Z,7.79
2019-03-16T05:12:09.472Z,7.77
2019-03-16T05:17:10.999Z,7.76
2019-03-16T05:22:12.510Z,7.73
2019-03-16T05:27:14.040Z,7.70
2019-03-16T05:32:15.573Z,7.66
2019-03-16T05:37:17.103Z,7.65
2019-03-16T05:42:18.603Z,7.67
2019-03-16T05:47:20.186Z,7.67
2019-03-16T05:52:21.662Z,7.67
2019-03-16T05:57:23.375Z,7.67
2019-03-16T06:02:24.888Z,7.66
2019-03-16T06:07:26.529Z,7.69
2019-03-16T06:12:28.011Z,7.76
2019-03-16T06:17:29.535Z,8.00
2019-03-16T06:22:31.102Z,8.02
2019-03-16T06:27:32.607Z,8.27
2019-03-16T06:32:35.148Z,8.43
2019-03-16T06:37:36.701Z,8.55
2019-03-16T06:42:38.546Z,8.63
2019-03-16T06:47:40.059Z,8.70
2019-03-16T06:52:41.679Z,8.78
2019-03-16T06:57:43.198Z,8.84
2019-03-16T07:02:45.736Z,8.92
2019-03-16T07:07:47.239Z,8.93
2019-03-16T07:12:48.776Z,8.95
2019-03-16T07:17:50.392Z,9.00
2019-03-16T07:22:51.938Z,9.01
2019-03-16T07:27:53.423Z,9.07
2019-03-16T07:32:54.952Z,9.07
2019-03-16T07:37:56.587Z,9.08
2019-03-16T07:42:58.115Z,9.09
2019-03-16T07:47:59.702Z,9.10
2019-03-16T07:53:01.285Z,9.14
2019-03-16T07:58:02.795Z,9.18
2019-03-16T08:03:04.293Z,9.19
2019-03-16T08:08:05.866Z,9.20
2019-03-16T08:13:07.352Z,9.21
2019-03-16T08:18:08.838Z,9.25
2019-03-16T08:23:10.348Z,9.26
2019-03-16T08:28:11.931Z,9.28
2019-03-16T08:33:13.410Z,9.28
2019-03-16T08:38:14.959Z,9.30
2019-03-16T08:43:16.565Z,9.28
2019-03-16T08:48:23.222Z,9.32
2019-03-16T08:53:22.959Z,9.30
2019-03-16T08:58:24.775Z,9.21
2019-03-16T09:03:26.269Z,9.42
2019-03-16T09:08:27.799Z,9.68
2019-03-16T09:13:29.322Z,9.69
2019-03-16T09:18:30.826Z,9.75
2019-03-16T09:23:32.413Z,9.92
2019-03-16T09:28:33.985Z,10.08
2019-03-16T09:33:35.541Z,10.09
2019-03-16T09:38:36.981Z,10.15
2019-03-16T09:43:38.635Z,10.26
2019-03-16T09:48:40.169Z,10.28
2019-03-16T09:53:41.692Z,10.40
2019-03-16T09:58:43.160Z,10.52
2019-03-16T10:03:44.811Z,10.58
2019-03-16T10:08:46.398Z,10.62
2019-03-16T10:13:47.946Z,10.69
2019-03-16T10:18:49.491Z,10.81
2019-03-16T10:23:51.016Z,10.87
2019-03-16T10:28:52.485Z,11.03
2019-03-16T10:33:54.016Z,11.23
2019-03-16T10:38:55.516Z,11.58
2019-03-16T10:43:57.112Z,11.76
2019-03-16T10:48:58.592Z,11.74
2019-03-16T10:54:00.169Z,11.52
2019-03-16T10:59:01.746Z,11.40
2019-03-16T11:04:03.255Z,11.27
2019-03-16T11:09:05.372Z,11.71
2019-03-16T11:14:06.864Z,11.71
2019-03-16T11:19:08.415Z,11.72
2019-03-16T11:24:09.940Z,11.54
2019-03-16T11:29:11.445Z,11.51
2019-03-16T11:34:15.050Z,11.57
2019-03-16T11:39:16.557Z,11.74
2019-03-16T11:44:18.071Z,11.68
2019-03-16T11:49:19.712Z,11.52
2019-03-16T11:54:21.209Z,11.46
2019-03-16T11:59:22.742Z,11.91
2019-03-16T12:04:24.332Z,11.91
2019-03-16T12:09:25.987Z,11.61
2019-03-16T12:14:27.506Z,11.71
2019-03-16T12:19:29.070Z,11.89
2019-03-16T12:24:32.690Z,11.70
2019-03-16T12:29:34.559Z,11.54
2019-03-16T12:34:36.329Z,11.37
2019-03-16T12:39:38.075Z,11.50
2019-03-16T12:44:39.625Z,11.74
2019-03-16T12:49:45.602Z,12.01
2019-03-16T12:54:47.205Z,11.90
2019-03-16T12:59:48.798Z,11.80
2019-03-16T13:04:50.308Z,11.62
2019-03-16T13:09:51.817Z,11.59
2019-03-16T13:14:53.346Z,11.59
2019-03-16T13:19:54.859Z,11.46
2019-03-16T13:24:56.400Z,11.51
2019-03-16T13:29:59.192Z,11.54
2019-03-16T13:35:00.933Z,11.54
2019-03-16T13:40:03.103Z,11.56
2019-03-16T13:45:04.839Z,11.47
2019-03-16T13:50:08.079Z,11.41
2019-03-16T13:55:09.915Z,11.38
2019-03-16T14:00:12.469Z,11.60
2019-03-16T14:05:14.281Z,11.49
2019-03-16T14:10:16.263Z,11.49
2019-03-16T14:15:17.791Z,11.56
2019-03-16T14:20:19.293Z,11.45
2019-03-16T14:25:20.807Z,11.42
2019-03-16T14:30:39.433Z,11.40
2019-03-16T14:35:25.736Z,11.34
2019-03-16T14:40:27.325Z,11.36
2019-03-16T14:45:40.716Z,11.33
2019-03-16T14:50:42.243Z,11.28
2019-03-16T14:55:43.755Z,11.22
2019-03-16T15:00:45.245Z,11.16
2019-03-16T15:05:48.871Z,11.28
2019-03-16T15:10:50.394Z,11.26
2019-03-16T15:15:51.942Z,11.21
2019-03-16T15:20:53.409Z,11.23
2019-03-16T15:26:03.244Z,11.22
2019-03-16T15:31:04.734Z,11.15
2019-03-16T15:36:06.265Z,11.15
2019-03-16T15:41:07.765Z,11.06
2019-03-16T15:46:09.323Z,11.06
2019-03-16T15:51:10.807Z,10.98
2019-03-16T15:56:12.341Z,10.97
2019-03-16T16:01:13.919Z,10.93
2019-03-16T16:06:15.475Z,11.01
2019-03-16T16:11:23.079Z,10.96
2019-03-16T16:16:24.561Z,10.91
2019-03-16T16:21:26.123Z,10.84
2019-03-16T16:26:27.621Z,10.79
2019-03-16T16:31:29.183Z,10.78
2019-03-16T16:36:30.785Z,10.70
2019-03-16T16:41:32.359Z,10.68
2019-03-16T16:46:40.743Z,10.69
2019-03-16T16:51:42.238Z,10.67
2019-03-16T16:56:43.809Z,10.63
2019-03-16T17:01:45.370Z,10.60
2019-03-16T17:06:46.861Z,10.61
2019-03-16T17:11:48.450Z,10.57
2019-03-16T17:16:50.034Z,10.52
2019-03-16T17:21:51.615Z,10.49
2019-03-16T17:26:53.155Z,10.49
2019-03-16T17:31:54.640Z,10.46
2019-03-16T17:36:56.238Z,10.42
2019-03-16T17:41:57.753Z,10.42
2019-03-16T17:46:59.265Z,10.41
2019-03-16T17:52:00.868Z,10.37
2019-03-16T17:57:02.472Z,10.38
2019-03-16T18:02:04.005Z,10.39
2019-03-16T18:07:05.662Z,10.39
2019-03-16T18:12:07.261Z,10.40
2019-03-16T18:17:08.830Z,10.41
2019-03-16T18:22:10.502Z,10.41
2019-03-16T18:27:12.115Z,10.42
2019-03-16T18:32:13.715Z,10.38
2019-03-16T18:37:15.284Z,10.37
2019-03-16T18:42:16.871Z,10.40
2019-03-16T18:47:18.552Z,10.39
2019-03-16T18:52:20.332Z,10.37
2019-03-16T18:57:22.125Z,10.36
2019-03-16T19:02:23.750Z,10.31
2019-03-16T19:07:25.564Z,10.32
2019-03-16T19:12:27.326Z,10.36
2019-03-16T19:17:28.870Z,10.37
2019-03-16T19:22:30.544Z,10.37
2019-03-16T19:27:32.141Z,10.38
2019-03-16T19:32:36.579Z,10.36
2019-03-16T19:37:37.185Z,10.37
2019-03-16T19:42:38.901Z,10.33
2019-03-16T19:47:40.590Z,10.36
2019-03-16T19:52:42.222Z,10.41
2019-03-16T19:57:43.975Z,10.41
2019-03-16T20:02:50.649Z,10.40
2019-03-16T20:07:49.236Z,10.43
2019-03-16T20:12:53.068Z,10.46
2019-03-16T20:17:54.648Z,10.43
2019-03-16T20:22:56.434Z,10.49
2019-03-16T20:27:58.263Z,10.50
2019-03-16T20:33:04.684Z,10.48
2019-03-16T20:38:04.748Z,10.45
2019-03-16T20:43:06.337Z,10.44
2019-03-16T20:48:07.875Z,10.43
2019-03-16T20:53:09.496Z,10.44
2019-03-16T20:58:11.538Z,10.45
2019-03-16T21:03:16.351Z,10.44
2019-03-16T21:08:17.084Z,10.45
2019-03-16T21:13:18.688Z,10.47
2019-03-16T21:18:20.275Z,10.44
2019-03-16T21:23:21.820Z,10.42
2019-03-16T21:28:23.603Z,10.42
2019-03-16T21:33:29.723Z,10.40
2019-03-16T21:38:31.264Z,10.38
2019-03-16T21:43:36.140Z,10.38
2019-03-16T21:48:37.781Z,10.34
2019-03-16T21:53:39.415Z,10.28
2019-03-16T21:58:41.604Z,10.34
2019-03-16T22:03:43.350Z,10.03
2019-03-16T22:08:44.997Z,10.09
2019-03-16T22:13:47.406Z,9.96
2019-03-16T22:18:48.937Z,9.89
2019-03-16T22:23:50.453Z,9.83
2019-03-16T22:28:51.926Z,9.74
2019-03-16T22:33:54.766Z,9.69
2019-03-16T22:38:56.594Z,9.66
2019-03-16T22:43:58.076Z,9.63
2019-03-16T22:49:00.660Z,9.63
2019-03-16T22:54:02.277Z,9.71
2019-03-16T22:59:03.822Z,9.77
2019-03-16T23:04:07.057Z,9.87
2019-03-16T23:09:08.828Z,9.96
2019-03-16T23:14:10.307Z,9.98
2019-03-16T23:19:11.891Z,10.04
2019-03-16T23:24:13.443Z,10.07
2019-03-16T23:29:14.993Z,10.11
2019-03-16T23:34:19.268Z,10.14
2019-03-16T23:39:20.303Z,10.17
2019-03-16T23:44:21.789Z,10.11
2019-03-16T23:49:23.315Z,10.19
2019-03-16T23:54:24.868Z,10.26
2019-03-16T23:59:26.431Z,10.29
